»·PEaware :: WAT169 KRNO-KLAS

WAT169 :: KRNO-KLAS

FLIGHT INFORMATION

Flight Status: Arrived
Operator:
Walker Air Transport
More flights by this operator :: More flights under this callsign
Pilot: Marty P. (27464)
Aircraft: BOEING 737-800
(B738)
More flights by this aircraft type
Origin: KRNO Reno/Tahoe Intl
United States
Destination: KLAS McCarran Intl
United States
More flights between these airports :: More routes between these airports
Route: +BTY SUNST4
File this flight plan on PilotEdge
Remarks:
Altitude:
(Current/Filed)
33,000ft
Speed:
(Current/Filed)
480kts
Departed: 18-Oct-20 09:30 AM
Arrived: 18-Oct-20 10:26 AM
Distance/Time
Traveled:
300nm/0:56
Distance/Time
To Go:
Arrived

Flight Plot

Page will automatically refresh every two minutes.

Flight plan parsing failed; only flown route is shown


Map Options




Map Legend


Flown Route
Filed Route
Departure Airport
Arrival Airport
Navaid (VOR, NDB)
Fix

Horizontal Profiles

Position Reports

Time Latitude Longitude Heading Altitude Ground
Speed
18-Oct-20 09:09 39.504392 -119.774256 16 4425ft 0kts
18-Oct-20 09:10 39.504392 -119.774256 16 4425ft 0kts
18-Oct-20 09:11 39.504392 -119.774256 16 4425ft 0kts
18-Oct-20 09:12 39.504392 -119.774256 16 4425ft 0kts
18-Oct-20 09:13 39.504392 -119.774256 16 4425ft 0kts
18-Oct-20 09:14 39.504392 -119.774256 16 4425ft 0kts
18-Oct-20 09:15 39.504392 -119.774256 16 4425ft 0kts
18-Oct-20 09:16 39.504360 -119.774265 26 4425ft 1kts
18-Oct-20 09:17 39.503824 -119.774453 5 4425ft 2kts
18-Oct-20 09:18 39.503739 -119.774246 71 4425ft 3kts
18-Oct-20 09:19 39.503742 -119.772224 89 4425ft 0kts
18-Oct-20 09:20 39.503742 -119.772220 89 4425ft 0kts
18-Oct-20 09:21 39.503742 -119.772220 89 4425ft 0kts
18-Oct-20 09:22 39.503742 -119.772220 89 4425ft 0kts
18-Oct-20 09:23 39.503742 -119.772220 89 4425ft 0kts
18-Oct-20 09:25 39.503742 -119.772220 89 4425ft 0kts
18-Oct-20 09:26 39.504611 -119.771513 358 4425ft 7kts
18-Oct-20 09:27 39.509844 -119.771509 0 4425ft 22kts
18-Oct-20 09:28 39.513740 -119.770492 88 4425ft 0kts
18-Oct-20 09:29 39.513740 -119.770492 88 4425ft 0kts
18-Oct-20 09:30 39.511867 -119.769239 179 4425ft 46kts
18-Oct-20 09:31 39.469668 -119.769487 179 5447ft 196kts
18-Oct-20 09:32 39.404738 -119.769357 180 7697ft 259kts
18-Oct-20 09:33 39.330986 -119.760771 161 10461ft 290kts
18-Oct-20 09:34 39.259141 -119.682407 131 11088ft 391kts
18-Oct-20 09:35 39.184374 -119.574198 131 13557ft 414kts
18-Oct-20 09:36 39.102523 -119.466378 136 16038ft 429kts
18-Oct-20 09:37 39.016484 -119.359804 136 19179ft 416kts
18-Oct-20 09:38 38.935989 -119.260077 137 19422ft 402kts
18-Oct-20 09:39 38.855221 -119.160279 137 22203ft 393kts
18-Oct-20 09:40 38.778939 -119.066436 138 24768ft 382kts
18-Oct-20 09:41 38.704546 -118.966538 134 26578ft 392kts
18-Oct-20 09:41 38.641811 -118.880982 134 28076ft 399kts
18-Oct-20 09:43 38.551855 -118.758830 133 29984ft 408kts
18-Oct-20 09:43 38.486998 -118.671065 133 31512ft 405kts
18-Oct-20 09:45 38.397283 -118.550103 133 33278ft 400kts
18-Oct-20 09:45 38.336521 -118.468479 133 33278ft 370kts
18-Oct-20 09:46 38.264408 -118.371919 133 33273ft 380kts
18-Oct-20 09:47 38.192967 -118.276491 134 33275ft 367kts
18-Oct-20 09:48 38.116829 -118.191707 169 33276ft 366kts
18-Oct-20 09:49 38.014233 -118.207618 192 33255ft 388kts
18-Oct-20 09:50 37.904081 -118.235504 192 33219ft 414kts
18-Oct-20 09:51 37.791206 -118.241744 159 33223ft 413kts
18-Oct-20 09:52 37.704571 -118.142036 129 33218ft 442kts
18-Oct-20 09:53 37.626619 -118.021197 129 33215ft 436kts
18-Oct-20 09:54 37.549672 -117.902013 129 33220ft 442kts
18-Oct-20 09:55 37.472407 -117.782460 129 33222ft 439kts
18-Oct-20 09:56 37.395599 -117.663736 129 33219ft 439kts
18-Oct-20 09:57 37.318289 -117.544357 129 33230ft 439kts
18-Oct-20 09:58 37.241193 -117.425427 129 33262ft 439kts
18-Oct-20 09:59 37.164339 -117.306975 129 33283ft 439kts
18-Oct-20 10:00 37.087489 -117.188608 129 33280ft 439kts
18-Oct-20 10:01 37.010507 -117.070152 129 33283ft 438kts
18-Oct-20 10:02 36.933084 -116.951138 129 33273ft 451kts
18-Oct-20 10:03 36.852030 -116.826644 129 33026ft 468kts
18-Oct-20 10:04 36.771264 -116.704808 131 30332ft 443kts
18-Oct-20 10:05 36.688899 -116.587829 131 27780ft 452kts
18-Oct-20 10:06 36.605420 -116.469174 131 25368ft 456kts
18-Oct-20 10:07 36.523382 -116.352811 131 22955ft 439kts
18-Oct-20 10:08 36.444041 -116.240724 132 21130ft 423kts
18-Oct-20 10:09 36.364603 -116.129447 132 19405ft 424kts
18-Oct-20 10:10 36.286737 -116.020350 132 17599ft 415kts
18-Oct-20 10:11 36.213805 -115.917167 126 16027ft 369kts
18-Oct-20 10:12 36.172340 -115.812248 111 16038ft 336kts
18-Oct-20 10:13 36.137709 -115.704332 111 15397ft 337kts
18-Oct-20 10:14 36.103523 -115.598450 111 13994ft 326kts
18-Oct-20 10:15 36.071385 -115.499277 111 12578ft 294kts
18-Oct-20 10:16 36.043019 -115.411893 111 11203ft 261kts
18-Oct-20 10:17 36.027313 -115.325065 94 10538ft 263kts
18-Oct-20 10:18 36.021155 -115.237900 94 9322ft 250kts
18-Oct-20 10:19 36.015647 -115.159766 94 9023ft 213kts
18-Oct-20 10:20 36.026263 -115.092233 28 8334ft 217kts
18-Oct-20 10:21 36.082730 -115.061860 21 5854ft 227kts
18-Oct-20 10:22 36.133633 -115.053003 304 5497ft 186kts
18-Oct-20 10:23 36.141147 -115.115494 269 3979ft 178kts
18-Oct-20 10:24 36.106348 -115.149168 205 2373ft 155kts
18-Oct-20 10:25 36.083274 -115.161250 174 2142ft 15kts
18-Oct-20 10:26 36.081626 -115.160141 94 2143ft 15kts
18-Oct-20 10:27 36.080926 -115.152193 98 2117ft 23kts
18-Oct-20 10:28 36.081370 -115.147869 65 2099ft 0kts
18-Oct-20 10:29 36.081370 -115.147869 65 2099ft 0kts
18-Oct-20 10:30 36.081370 -115.147869 65 2099ft 0kts
18-Oct-20 10:31 36.081370 -115.147869 65 2099ft 0kts
18-Oct-20 10:32 36.081370 -115.147869 65 2099ft 0kts
18-Oct-20 10:33 36.081370 -115.147869 65 2099ft 0kts
18-Oct-20 10:34 36.081370 -115.147869 65 2099ft 0kts
18-Oct-20 10:35 36.081370 -115.147869 65 2099ft 0kts
18-Oct-20 10:36 36.081370 -115.147869 65 2099ft 0kts
18-Oct-20 10:37 36.081370 -115.147869 65 2099ft 0kts
18-Oct-20 10:38 36.081370 -115.147869 65 2099ft 0kts
18-Oct-20 10:39 36.081370 -115.147869 65 2099ft 0kts
18-Oct-20 10:40 36.081370 -115.147869 65 2099ft 0kts

Navigation Log

Ident Type
Flight plan parsing failed, navigation log unavailable